createdAt,value
2023-02-06T00:00:00.659Z,102610
2023-02-06T00:01:00.520Z,102610
2023-02-06T00:02:00.437Z,102610
2023-02-06T00:03:00.430Z,102600
2023-02-06T00:04:00.432Z,102600
2023-02-06T00:05:00.429Z,102600
2023-02-06T00:06:00.851Z,102590
2023-02-06T00:07:00.666Z,102590
2023-02-06T00:08:00.558Z,102590
2023-02-06T00:09:00.794Z,102590
2023-02-06T00:10:00.452Z,102590
2023-02-06T00:11:02.351Z,102590
2023-02-06T00:12:00.425Z,102590
2023-02-06T00:13:00.441Z,102590
2023-02-06T00:14:00.564Z,102590
2023-02-06T00:15:00.467Z,102590
2023-02-06T00:16:00.948Z,102600
2023-02-06T00:17:00.422Z,102590
2023-02-06T00:18:00.653Z,102590
2023-02-06T00:19:00.480Z,102590
2023-02-06T00:20:00.434Z,102590
2023-02-06T00:21:00.440Z,102590
2023-02-06T00:22:00.437Z,102590
2023-02-06T00:23:00.421Z,102590
2023-02-06T00:24:00.901Z,102600
2023-02-06T00:25:00.555Z,102590
2023-02-06T00:26:00.450Z,102600
2023-02-06T00:27:00.491Z,102590
2023-02-06T00:28:00.687Z,102590
2023-02-06T00:29:00.680Z,102590
2023-02-06T00:30:00.456Z,102590
2023-02-06T00:31:00.518Z,102590
2023-02-06T00:32:00.469Z,102590
2023-02-06T00:33:00.533Z,102590
2023-02-06T00:34:00.544Z,102590
2023-02-06T00:35:00.402Z,102580
2023-02-06T00:36:00.787Z,102580
2023-02-06T00:37:00.498Z,102580
2023-02-06T00:38:00.509Z,102580
2023-02-06T00:39:00.440Z,102570
2023-02-06T00:40:00.484Z,102580
2023-02-06T00:41:00.477Z,102580
2023-02-06T00:42:00.707Z,102580
2023-02-06T00:43:00.482Z,102580
2023-02-06T00:44:00.440Z,102570
2023-02-06T00:45:00.390Z,102570
2023-02-06T00:46:00.449Z,102570
2023-02-06T00:47:00.486Z,102570
2023-02-06T00:48:00.430Z,102570
2023-02-06T00:49:00.497Z,102570
2023-02-06T00:50:00.403Z,102570
2023-02-06T00:51:00.518Z,102570
2023-02-06T00:52:00.462Z,102570
2023-02-06T00:53:00.489Z,102570
2023-02-06T00:54:00.545Z,102560
2023-02-06T00:55:00.453Z,102560
2023-02-06T00:56:00.476Z,102550
2023-02-06T00:57:00.432Z,102550
2023-02-06T00:58:00.473Z,102550
2023-02-06T00:59:00.554Z,102550
2023-02-06T01:00:00.486Z,102550
2023-02-06T01:01:00.518Z,102550
2023-02-06T01:02:00.852Z,102550
2023-02-06T01:03:00.510Z,102540
2023-02-06T01:04:00.498Z,102540
2023-02-06T01:05:00.457Z,102540
2023-02-06T01:06:00.456Z,102540
2023-02-06T01:07:00.533Z,102530
2023-02-06T01:08:01.488Z,102540
2023-02-06T01:09:00.453Z,102540
2023-02-06T01:10:00.435Z,102540
2023-02-06T01:11:00.391Z,102540
2023-02-06T01:12:00.437Z,102540
2023-02-06T01:13:00.501Z,102530
2023-02-06T01:14:00.786Z,102530
2023-02-06T01:15:00.551Z,102530
2023-02-06T01:16:00.541Z,102530
2023-02-06T01:17:00.514Z,102530
2023-02-06T01:18:00.462Z,102520
2023-02-06T01:19:00.424Z,102520
2023-02-06T01:20:00.653Z,102530
2023-02-06T01:21:00.440Z,102530
2023-02-06T01:22:00.414Z,102530
2023-02-06T01:23:00.628Z,102530
2023-02-06T01:24:00.515Z,102530
2023-02-06T01:25:00.767Z,102530
2023-02-06T01:26:03.709Z,102530
2023-02-06T01:27:00.463Z,102530
2023-02-06T01:28:00.459Z,102530
2023-02-06T01:29:00.892Z,102530
2023-02-06T01:30:00.432Z,102530
2023-02-06T01:31:00.583Z,102530
2023-02-06T01:32:00.463Z,102530
2023-02-06T01:33:00.445Z,102530
2023-02-06T01:34:00.552Z,102530
2023-02-06T01:35:00.544Z,102530
2023-02-06T01:36:00.463Z,102530
2023-02-06T01:37:00.757Z,102530
2023-02-06T01:38:00.415Z,102530
2023-02-06T01:39:00.476Z,102530
2023-02-06T01:40:00.477Z,102530
2023-02-06T01:41:02.197Z,102530
2023-02-06T01:42:00.725Z,102530
2023-02-06T01:43:00.421Z,102530
2023-02-06T01:44:10.281Z,102530
2023-02-06T01:45:10.309Z,102540
2023-02-06T01:46:00.450Z,102540
2023-02-06T01:47:00.440Z,102540
2023-02-06T01:48:02.220Z,102540
2023-02-06T01:49:00.829Z,102550
2023-02-06T01:50:00.477Z,102540
2023-02-06T01:51:01.890Z,102550
2023-02-06T01:52:07.397Z,102550
2023-02-06T01:53:02.155Z,102550
2023-02-06T01:54:02.771Z,102550
2023-02-06T01:55:03.475Z,102550
2023-02-06T01:56:02.657Z,102550
2023-02-06T01:57:03.496Z,102550
2023-02-06T01:58:01.191Z,102550
2023-02-06T01:59:01.537Z,102550
2023-02-06T02:00:03.191Z,102550
2023-02-06T02:01:00.718Z,102550
2023-02-06T02:02:00.582Z,102540
2023-02-06T02:03:00.812Z,102550
2023-02-06T02:04:03.051Z,102540
2023-02-06T02:05:01.018Z,102540
2023-02-06T02:06:04.613Z,102540
2023-02-06T02:07:01.549Z,102530
2023-02-06T02:08:10.303Z,102530
2023-02-06T02:09:00.974Z,102540
2023-02-06T02:10:00.884Z,102530
2023-02-06T02:11:02.345Z,102530
2023-02-06T02:12:00.547Z,102520
2023-02-06T02:13:00.587Z,102520
2023-02-06T02:14:02.325Z,102510
2023-02-06T02:15:00.468Z,102520
2023-02-06T02:16:10.301Z,102510
2023-02-06T02:17:10.310Z,102510
2023-02-06T02:18:10.282Z,102510
2023-02-06T02:19:10.282Z,102500
2023-02-06T02:20:10.315Z,102500
2023-02-06T02:21:10.317Z,102500
2023-02-06T02:22:10.252Z,102500
2023-02-06T02:23:10.303Z,102490
2023-02-06T02:24:05.280Z,102490
2023-02-06T02:25:07.786Z,102480
2023-02-06T02:26:03.830Z,102480
2023-02-06T02:27:10.281Z,102480
2023-02-06T02:28:10.392Z,102480
2023-02-06T02:29:10.315Z,102470
2023-02-06T02:30:10.284Z,102480
2023-02-06T02:31:10.341Z,102480
2023-02-06T02:32:01.512Z,102480
2023-02-06T02:33:10.286Z,102480
2023-02-06T02:34:07.826Z,102480
2023-02-06T02:35:10.277Z,102470
2023-02-06T02:36:00.432Z,102460
2023-02-06T02:37:08.658Z,102460
2023-02-06T02:38:00.453Z,102450
2023-02-06T02:39:01.466Z,102440
2023-02-06T02:40:10.259Z,102440
2023-02-06T02:41:11.249Z,102440
2023-02-06T02:42:10.379Z,102440
2023-02-06T02:43:03.775Z,102430
2023-02-06T02:44:10.302Z,102430
2023-02-06T02:45:08.623Z,102430
2023-02-06T02:46:04.941Z,102430
2023-02-06T02:47:02.635Z,102420
2023-02-06T02:48:05.003Z,102420
2023-02-06T02:49:03.501Z,102410
2023-02-06T02:50:01.394Z,102410
2023-02-06T02:51:00.777Z,102400
2023-02-06T02:52:00.531Z,102400
2023-02-06T02:53:01.543Z,102400
2023-02-06T02:54:00.475Z,102400
2023-02-06T02:55:00.431Z,102400
2023-02-06T02:56:00.554Z,102390
2023-02-06T02:57:04.175Z,102400
2023-02-06T02:58:04.154Z,102400
2023-02-06T02:59:04.061Z,102400
2023-02-06T03:00:01.085Z,102400
2023-02-06T03:01:02.617Z,102400
2023-02-06T03:02:03.796Z,102400
2023-02-06T03:03:00.882Z,102400
2023-02-06T03:04:04.218Z,102400
2023-02-06T03:05:03.695Z,102400
2023-02-06T03:06:01.477Z,102400
2023-02-06T03:07:01.419Z,102400
2023-02-06T03:08:10.277Z,102410
2023-02-06T03:09:10.269Z,102410
2023-02-06T03:10:07.871Z,102410
2023-02-06T03:11:10.324Z,102410
2023-02-06T03:12:10.238Z,102410
2023-02-06T03:13:03.235Z,102410
2023-02-06T03:14:04.851Z,102410
2023-02-06T03:15:04.239Z,102410
2023-02-06T03:16:06.906Z,102410
2023-02-06T03:17:04.323Z,102410
2023-02-06T03:18:06.113Z,102410
2023-02-06T03:19:00.395Z,102400
2023-02-06T03:20:01.656Z,102400
2023-02-06T03:21:02.894Z,102410
2023-02-06T03:22:01.707Z,102410
2023-02-06T03:23:01.916Z,102410
2023-02-06T03:24:02.879Z,102410
2023-02-06T03:25:01.715Z,102420
2023-02-06T03:26:02.188Z,102420
2023-02-06T03:27:02.389Z,102430
2023-02-06T03:28:01.078Z,102430
2023-02-06T03:29:02.143Z,102430
2023-02-06T03:30:01.904Z,102430
2023-02-06T03:31:02.120Z,102420
2023-02-06T03:32:06.783Z,102430
2023-02-06T03:33:03.358Z,102430
2023-02-06T03:34:04.417Z,102430
2023-02-06T03:35:03.955Z,102430
2023-02-06T03:36:01.158Z,102430
2023-02-06T03:37:00.589Z,102430
2023-02-06T03:38:00.969Z,102430
2023-02-06T03:39:00.604Z,102420
2023-02-06T03:40:01.082Z,102420
2023-02-06T03:41:01.084Z,102420
2023-02-06T03:42:01.671Z,102420
2023-02-06T03:43:01.856Z,102420
2023-02-06T03:44:01.233Z,102420
2023-02-06T03:45:04.869Z,102420
2023-02-06T03:46:03.004Z,102420
2023-02-06T03:47:01.708Z,102420
2023-02-06T03:48:07.715Z,102430
2023-02-06T03:49:02.016Z,102420
2023-02-06T03:50:01.089Z,102430
2023-02-06T03:51:02.326Z,102420
2023-02-06T03:52:04.193Z,102420
2023-02-06T03:53:01.348Z,102430
2023-02-06T03:54:02.341Z,102420
2023-02-06T03:55:03.694Z,102430
2023-02-06T03:56:05.783Z,102430
2023-02-06T03:57:02.129Z,102430
2023-02-06T03:58:03.749Z,102440
2023-02-06T03:59:00.463Z,102440
2023-02-06T04:00:00.557Z,102430
2023-02-06T04:01:02.005Z,102430
2023-02-06T04:02:02.738Z,102440
2023-02-06T04:03:00.853Z,102440
2023-02-06T04:04:02.507Z,102440
2023-02-06T04:05:00.473Z,102440
2023-02-06T04:06:00.558Z,102440
2023-02-06T04:07:10.302Z,102440
2023-02-06T04:08:00.500Z,102440
2023-02-06T04:09:00.529Z,102440
2023-02-06T04:10:00.501Z,102430
2023-02-06T04:11:00.455Z,102430
2023-02-06T04:12:00.525Z,102430
2023-02-06T04:13:00.509Z,102430
2023-02-06T04:14:00.587Z,102440
2023-02-06T04:15:00.461Z,102430
2023-02-06T04:16:01.205Z,102430
2023-02-06T04:17:00.503Z,102440
2023-02-06T04:18:01.774Z,102440
2023-02-06T04:19:00.446Z,102440
2023-02-06T04:20:00.538Z,102440
2023-02-06T04:21:07.682Z,102440
2023-02-06T04:22:00.554Z,102440
2023-02-06T04:23:00.465Z,102440
2023-02-06T04:24:00.445Z,102440
2023-02-06T04:25:00.543Z,102440
2023-02-06T04:26:00.472Z,102440
2023-02-06T04:27:00.468Z,102440
2023-02-06T04:28:00.652Z,102440
2023-02-06T04:29:00.490Z,102440
2023-02-06T04:30:00.496Z,102440
2023-02-06T04:31:00.618Z,102440
2023-02-06T04:32:00.750Z,102440
2023-02-06T04:33:00.436Z,102440
2023-02-06T04:34:00.474Z,102440
2023-02-06T04:35:00.468Z,102440
2023-02-06T04:36:00.458Z,102440
2023-02-06T04:37:00.893Z,102450
2023-02-06T04:38:00.473Z,102450
2023-02-06T04:39:00.553Z,102460
2023-02-06T04:40:00.425Z,102460
2023-02-06T04:41:04.419Z,102460
2023-02-06T04:42:00.481Z,102460
2023-02-06T04:43:00.439Z,102450
2023-02-06T04:44:00.514Z,102450
2023-02-06T04:45:00.615Z,102450
2023-02-06T04:46:00.533Z,102450
2023-02-06T04:47:00.824Z,102450
2023-02-06T04:48:00.579Z,102450
2023-02-06T04:49:00.457Z,102440
2023-02-06T04:50:00.573Z,102440
2023-02-06T04:51:00.431Z,102440
2023-02-06T04:52:00.457Z,102440
2023-02-06T04:53:00.558Z,102440
2023-02-06T04:54:00.811Z,102440
2023-02-06T04:55:00.470Z,102440
2023-02-06T04:56:01.490Z,102440
2023-02-06T04:57:00.444Z,102440
2023-02-06T04:58:00.448Z,102440
2023-02-06T04:59:00.463Z,102440
2023-02-06T05:00:00.510Z,102430
2023-02-06T05:01:00.926Z,102430
2023-02-06T05:02:00.544Z,102440
2023-02-06T05:03:00.640Z,102430
2023-02-06T05:04:00.553Z,102430
2023-02-06T05:05:00.503Z,102430
2023-02-06T05:06:01.425Z,102430
2023-02-06T05:07:00.497Z,102430
2023-02-06T05:08:00.503Z,102430
2023-02-06T05:09:01.648Z,102420
2023-02-06T05:10:00.503Z,102430
2023-02-06T05:11:00.417Z,102430
2023-02-06T05:12:00.540Z,102430
2023-02-06T05:13:00.506Z,102430
2023-02-06T05:14:00.449Z,102430
2023-02-06T05:15:00.552Z,102430
2023-02-06T05:16:04.808Z,102420
2023-02-06T05:17:00.491Z,102430
2023-02-06T05:18:00.434Z,102440
2023-02-06T05:19:00.472Z,102430
2023-02-06T05:20:00.467Z,102440
2023-02-06T05:21:00.900Z,102440
2023-02-06T05:22:00.536Z,102430
2023-02-06T05:23:00.631Z,102440
2023-02-06T05:24:00.557Z,102430
2023-02-06T05:25:00.487Z,102430
2023-02-06T05:26:00.539Z,102430
2023-02-06T05:27:00.455Z,102440
2023-02-06T05:28:00.613Z,102440
2023-02-06T05:29:00.416Z,102440
2023-02-06T05:30:00.437Z,102440
2023-02-06T05:31:00.665Z,102440
2023-02-06T05:32:00.476Z,102440
2023-02-06T05:33:00.798Z,102430
2023-02-06T05:34:00.497Z,102430
2023-02-06T05:35:00.459Z,102430
2023-02-06T05:36:01.737Z,102430
2023-02-06T05:37:00.439Z,102430
2023-02-06T05:38:00.502Z,102440
2023-02-06T05:39:00.479Z,102440
2023-02-06T05:40:00.465Z,102440
2023-02-06T05:41:00.452Z,102440
2023-02-06T05:42:00.455Z,102440
2023-02-06T05:43:00.439Z,102430
2023-02-06T05:44:00.433Z,102440
2023-02-06T05:45:00.570Z,102440
2023-02-06T05:46:00.608Z,102440
2023-02-06T05:47:00.431Z,102440
2023-02-06T05:48:00.533Z,102440
2023-02-06T05:49:00.559Z,102440
2023-02-06T05:50:00.475Z,102440
2023-02-06T05:51:00.929Z,102450
2023-02-06T05:52:00.441Z,102450
2023-02-06T05:53:00.440Z,102440
2023-02-06T05:54:00.636Z,102450
2023-02-06T05:55:00.447Z,102450
2023-02-06T05:56:00.536Z,102440
2023-02-06T05:57:00.871Z,102440
2023-02-06T05:58:00.454Z,102440
2023-02-06T05:59:00.470Z,102450
2023-02-06T06:00:00.572Z,102450
2023-02-06T06:01:00.428Z,102450
2023-02-06T06:02:01.148Z,102440
2023-02-06T06:03:00.447Z,102440
2023-02-06T06:04:00.511Z,102450
2023-02-06T06:05:01.242Z,102450
2023-02-06T06:06:00.708Z,102450
2023-02-06T06:07:00.718Z,102450
2023-02-06T06:08:00.439Z,102450
2023-02-06T06:09:00.440Z,102450
2023-02-06T06:10:00.641Z,102450
2023-02-06T06:11:02.025Z,102450
2023-02-06T06:12:00.458Z,102460
2023-02-06T06:13:00.467Z,102450
2023-02-06T06:14:00.552Z,102450
2023-02-06T06:15:00.417Z,102450
2023-02-06T06:16:00.569Z,102460
2023-02-06T06:17:00.524Z,102450
2023-02-06T06:18:00.486Z,102460
2023-02-06T06:19:00.467Z,102460
2023-02-06T06:20:00.519Z,102460
2023-02-06T06:21:00.475Z,102450
2023-02-06T06:22:00.449Z,102450
2023-02-06T06:23:00.453Z,102450
2023-02-06T06:24:00.696Z,102460
2023-02-06T06:25:00.468Z,102460
2023-02-06T06:26:00.473Z,102460
2023-02-06T06:27:00.396Z,102460
2023-02-06T06:28:00.456Z,102460
2023-02-06T06:29:00.569Z,102470
2023-02-06T06:30:00.565Z,102470
2023-02-06T06:31:02.207Z,102470
2023-02-06T06:32:00.458Z,102470
2023-02-06T06:33:00.470Z,102470
2023-02-06T06:34:00.520Z,102470
2023-02-06T06:35:00.479Z,102470
2023-02-06T06:36:00.453Z,102470
2023-02-06T06:37:00.438Z,102470
2023-02-06T06:38:00.489Z,102460
2023-02-06T06:39:00.428Z,102470
2023-02-06T06:40:00.617Z,102470
2023-02-06T06:41:00.471Z,102470
2023-02-06T06:42:00.503Z,102460
2023-02-06T06:43:00.473Z,102470
2023-02-06T06:44:00.513Z,102470
2023-02-06T06:45:00.447Z,102460
2023-02-06T06:46:00.655Z,102460
2023-02-06T06:47:00.496Z,102460
2023-02-06T06:48:00.445Z,102460
2023-02-06T06:49:00.521Z,102470
2023-02-06T06:50:00.605Z,102470
2023-02-06T06:51:00.524Z,102460
2023-02-06T06:52:00.438Z,102460
2023-02-06T06:53:00.539Z,102460
2023-02-06T06:54:00.465Z,102460
2023-02-06T06:55:00.476Z,102460
2023-02-06T06:56:02.917Z,102460
2023-02-06T06:57:00.435Z,102470
2023-02-06T06:58:00.557Z,102470
2023-02-06T06:59:00.467Z,102460
2023-02-06T07:00:00.481Z,102470
2023-02-06T07:01:00.695Z,102470
2023-02-06T07:02:00.594Z,102470
2023-02-06T07:03:00.484Z,102470
2023-02-06T07:04:00.423Z,102470
2023-02-06T07:05:00.621Z,102470
2023-02-06T07:06:00.457Z,102480
2023-02-06T07:07:00.559Z,102480
2023-02-06T07:08:00.450Z,102480
2023-02-06T07:09:00.666Z,102480
2023-02-06T07:10:00.488Z,102480
2023-02-06T07:11:00.471Z,102490
2023-02-06T07:12:00.459Z,102480
2023-02-06T07:13:00.523Z,102490
2023-02-06T07:14:00.475Z,102490
2023-02-06T07:15:00.623Z,102490
2023-02-06T07:16:00.427Z,102500
2023-02-06T07:17:00.453Z,102500
2023-02-06T07:18:00.524Z,102500
2023-02-06T07:19:00.430Z,102510
2023-02-06T07:20:00.510Z,102510
2023-02-06T07:21:00.453Z,102520
2023-02-06T07:22:00.507Z,102530
2023-02-06T07:23:00.464Z,102540
2023-02-06T07:24:02.207Z,102540
2023-02-06T07:25:00.452Z,102540
2023-02-06T07:26:00.425Z,102550
2023-02-06T07:27:00.377Z,102550
2023-02-06T07:28:00.483Z,102550
2023-02-06T07:29:00.468Z,102560
2023-02-06T07:30:00.434Z,102560
2023-02-06T07:31:01.602Z,102570
2023-02-06T07:32:00.572Z,102570
2023-02-06T07:33:00.469Z,102570
2023-02-06T07:34:00.681Z,102570
2023-02-06T07:35:00.570Z,102570
2023-02-06T07:36:03.302Z,102570
2023-02-06T07:37:00.705Z,102560
2023-02-06T07:38:00.492Z,102560
2023-02-06T07:39:02.231Z,102560
2023-02-06T07:40:00.504Z,102560
2023-02-06T07:41:01.148Z,102560
2023-02-06T07:42:00.440Z,102560
2023-02-06T07:43:00.480Z,102560
2023-02-06T07:44:00.442Z,102560
2023-02-06T07:45:00.482Z,102560
2023-02-06T07:46:01.254Z,102560
2023-02-06T07:47:00.513Z,102560
2023-02-06T07:48:02.674Z,102570
2023-02-06T07:49:00.534Z,102560
2023-02-06T07:50:00.430Z,102560
2023-02-06T07:51:04.843Z,102560
2023-02-06T07:52:00.422Z,102560
2023-02-06T07:53:00.570Z,102560
2023-02-06T07:54:00.418Z,102560
2023-02-06T07:55:00.429Z,102560
2023-02-06T07:56:00.500Z,102560
2023-02-06T07:57:00.548Z,102560
2023-02-06T07:58:00.447Z,102560
2023-02-06T07:59:00.429Z,102560
2023-02-06T08:00:00.535Z,102560
2023-02-06T08:01:04.420Z,102560
2023-02-06T08:02:00.471Z,102570
2023-02-06T08:03:00.534Z,102580
2023-02-06T08:04:00.534Z,102580
2023-02-06T08:05:00.480Z,102570
2023-02-06T08:06:05.833Z,102580
2023-02-06T08:07:01.002Z,102580
2023-02-06T08:08:00.520Z,102580
2023-02-06T08:09:00.775Z,102580
2023-02-06T08:10:00.580Z,102570
2023-02-06T08:11:03.227Z,102570
2023-02-06T08:12:00.486Z,102570
2023-02-06T08:13:00.435Z,102580
2023-02-06T08:14:00.488Z,102580
2023-02-06T08:15:00.433Z,102580
2023-02-06T08:16:04.820Z,102580
2023-02-06T08:17:00.537Z,102580
2023-02-06T08:18:00.551Z,102580
2023-02-06T08:19:00.530Z,102580
2023-02-06T08:20:00.555Z,102580
2023-02-06T08:21:02.749Z,102580
2023-02-06T08:22:00.507Z,102580
2023-02-06T08:23:00.647Z,102570
2023-02-06T08:24:00.434Z,102570
2023-02-06T08:25:00.473Z,102570
2023-02-06T08:26:01.434Z,102570
2023-02-06T08:27:00.449Z,102570
2023-02-06T08:28:00.625Z,102570
2023-02-06T08:29:01.773Z,102570
2023-02-06T08:30:00.500Z,102580
2023-02-06T08:31:01.267Z,102570
2023-02-06T08:32:00.501Z,102570
2023-02-06T08:33:00.533Z,102580
2023-02-06T08:34:00.956Z,102570
2023-02-06T08:35:00.826Z,102580
2023-02-06T08:36:01.134Z,102570
2023-02-06T08:37:00.561Z,102580
2023-02-06T08:38:00.479Z,102580
2023-02-06T08:39:01.420Z,102580
2023-02-06T08:40:00.470Z,102580
2023-02-06T08:41:00.567Z,102580
2023-02-06T08:42:00.475Z,102580
2023-02-06T08:43:00.457Z,102580
2023-02-06T08:44:01.072Z,102580
2023-02-06T08:45:00.449Z,102580
2023-02-06T08:46:00.468Z,102590
2023-02-06T08:47:09.658Z,102600
2023-02-06T08:48:00.427Z,102600
2023-02-06T08:49:02.879Z,102600
2023-02-06T08:50:02.984Z,102600
2023-02-06T08:51:01.529Z,102600
2023-02-06T08:52:00.561Z,102590
2023-02-06T08:53:00.456Z,102590
2023-02-06T08:54:02.137Z,102590
2023-02-06T08:55:00.404Z,102590
2023-02-06T08:56:03.427Z,102590
2023-02-06T08:57:00.488Z,102580
2023-02-06T08:58:00.527Z,102590
2023-02-06T08:59:00.774Z,102580
2023-02-06T09:00:00.507Z,102580
2023-02-06T09:01:08.642Z,102580
2023-02-06T09:02:00.500Z,102570
2023-02-06T09:03:00.640Z,102570
2023-02-06T09:04:01.953Z,102570
2023-02-06T09:05:00.443Z,102570
2023-02-06T09:06:09.377Z,102570
2023-02-06T09:07:00.443Z,102580
2023-02-06T09:08:00.541Z,102580
2023-02-06T09:09:00.468Z,102570
2023-02-06T09:10:00.483Z,102570
2023-02-06T09:11:09.534Z,102570
2023-02-06T09:12:00.529Z,102570
2023-02-06T09:13:00.450Z,102570
2023-02-06T09:14:01.675Z,102570
2023-02-06T09:15:00.472Z,102580
2023-02-06T09:16:00.541Z,102580
2023-02-06T09:17:00.458Z,102580
2023-02-06T09:18:00.444Z,102580
2023-02-06T09:19:01.073Z,102580
2023-02-06T09:20:01.013Z,102580
2023-02-06T09:21:02.553Z,102590
2023-02-06T09:22:00.438Z,102590
2023-02-06T09:23:00.492Z,102600
2023-02-06T09:24:02.416Z,102590
2023-02-06T09:25:00.439Z,102600
2023-02-06T09:26:00.611Z,102600
2023-02-06T09:27:01.081Z,102600
2023-02-06T09:28:00.438Z,102610
2023-02-06T09:29:01.070Z,102610
2023-02-06T09:30:00.455Z,102610
2023-02-06T09:31:00.644Z,102610
2023-02-06T09:32:00.674Z,102620
2023-02-06T09:33:00.460Z,102610
2023-02-06T09:34:00.705Z,102610
2023-02-06T09:35:00.436Z,102610
2023-02-06T09:36:02.817Z,102610
2023-02-06T09:37:01.090Z,102610
2023-02-06T09:38:00.416Z,102610
2023-02-06T09:39:01.899Z,102610
2023-02-06T09:40:00.420Z,102610
2023-02-06T09:41:05.253Z,102610
2023-02-06T09:42:01.485Z,102610
2023-02-06T09:43:02.136Z,102610
2023-02-06T09:44:04.448Z,102610
2023-02-06T09:45:04.376Z,102610
2023-02-06T09:46:01.652Z,102600
2023-02-06T09:47:01.534Z,102600
2023-02-06T09:48:10.238Z,102600
2023-02-06T09:49:05.109Z,102600
2023-02-06T09:50:01.677Z,102600
2023-02-06T09:51:01.413Z,102600
2023-02-06T09:52:10.312Z,102590
2023-02-06T09:53:10.311Z,102590
2023-02-06T09:54:07.760Z,102590
2023-02-06T09:55:05.426Z,102590
2023-02-06T09:56:00.412Z,102590
2023-02-06T09:57:07.078Z,102590
2023-02-06T09:58:08.724Z,102590
2023-02-06T09:59:06.923Z,102590
2023-02-06T10:00:04.993Z,102590
2023-02-06T10:01:10.303Z,102590
2023-02-06T10:02:10.299Z,102590
2023-02-06T10:03:03.746Z,102590
2023-02-06T10:04:00.519Z,102600
2023-02-06T10:05:10.325Z,102600
2023-02-06T10:06:10.423Z,102600
2023-02-06T10:07:10.300Z,102610
2023-02-06T10:08:10.268Z,102600
2023-02-06T10:09:10.273Z,102600
2023-02-06T10:10:03.354Z,102600
2023-02-06T10:11:03.413Z,102600
2023-02-06T10:12:03.136Z,102600
2023-02-06T10:13:08.433Z,102610
2023-02-06T10:14:03.285Z,102610
2023-02-06T10:15:08.173Z,102600
2023-02-06T10:16:05.245Z,102600
2023-02-06T10:17:03.952Z,102590
2023-02-06T10:18:04.332Z,102590
2023-02-06T10:19:05.003Z,102590
2023-02-06T10:20:10.304Z,102600
2023-02-06T10:21:04.687Z,102590
2023-02-06T10:22:00.382Z,102590
2023-02-06T10:23:10.313Z,102590
2023-02-06T10:24:06.758Z,102580
2023-02-06T10:25:10.250Z,102580
2023-02-06T10:26:03.828Z,102580
2023-02-06T10:27:02.565Z,102580
2023-02-06T10:28:01.632Z,102580
2023-02-06T10:29:00.402Z,102580
2023-02-06T10:30:00.708Z,102570
2023-02-06T10:31:10.387Z,102580
2023-02-06T10:32:00.458Z,102580
2023-02-06T10:33:07.880Z,102580
2023-02-06T10:34:10.287Z,102580
2023-02-06T10:35:10.272Z,102570
2023-02-06T10:36:01.544Z,102580
2023-02-06T10:37:10.433Z,102580
2023-02-06T10:38:10.246Z,102580
2023-02-06T10:39:10.307Z,102580
2023-02-06T10:40:09.112Z,102580
2023-02-06T10:41:08.034Z,102590
2023-02-06T10:42:10.348Z,102580
2023-02-06T10:43:10.364Z,102580
2023-02-06T10:44:05.466Z,102590
2023-02-06T10:45:19.623Z,102580
2023-02-06T10:46:09.531Z,102590
2023-02-06T10:47:00.858Z,102580
2023-02-06T10:48:09.916Z,102590
2023-02-06T10:49:03.449Z,102590
2023-02-06T10:50:06.392Z,102590
2023-02-06T10:51:10.299Z,102580
2023-02-06T10:52:01.951Z,102580
2023-02-06T10:53:10.308Z,102580
2023-02-06T10:54:01.989Z,102580
2023-02-06T10:55:03.612Z,102580
2023-02-06T10:56:05.741Z,102590
2023-02-06T10:57:01.038Z,102570
2023-02-06T10:58:10.290Z,102570
2023-02-06T10:59:03.728Z,102570
2023-02-06T11:00:01.339Z,102570
2023-02-06T11:01:01.196Z,102560
2023-02-06T11:02:10.313Z,102560
2023-02-06T11:03:07.869Z,102560
2023-02-06T11:04:03.747Z,102560
2023-02-06T11:05:10.261Z,102580
2023-02-06T11:06:00.810Z,102570
2023-02-06T11:07:01.382Z,102560
2023-02-06T11:08:10.251Z,102560
2023-02-06T11:09:00.512Z,102560
2023-02-06T11:10:00.490Z,102550
2023-02-06T11:11:10.300Z,102560
2023-02-06T11:12:00.969Z,102550
2023-02-06T11:13:01.536Z,102560
2023-02-06T11:14:00.404Z,102560
2023-02-06T11:15:05.069Z,102560
2023-02-06T11:16:01.709Z,102540
2023-02-06T11:17:00.615Z,102550
2023-02-06T11:18:02.234Z,102560
2023-02-06T11:19:09.618Z,102550
2023-02-06T11:20:10.286Z,102550
2023-02-06T11:21:00.720Z,102550
2023-02-06T11:22:03.838Z,102540
2023-02-06T11:23:10.322Z,102540
2023-02-06T11:24:10.312Z,102540
2023-02-06T11:25:03.009Z,102540
2023-02-06T11:26:10.278Z,102540
2023-02-06T11:27:01.809Z,102540
2023-02-06T11:28:00.560Z,102540
2023-02-06T11:29:08.889Z,102540
2023-02-06T11:30:06.750Z,102530
2023-02-06T11:31:02.113Z,102530
2023-02-06T11:32:01.924Z,102530
2023-02-06T11:33:10.296Z,102530
2023-02-06T11:34:00.586Z,102520
2023-02-06T11:35:02.132Z,102530
2023-02-06T11:36:00.562Z,102520
2023-02-06T11:37:00.444Z,102530
2023-02-06T11:38:05.692Z,102560
2023-02-06T11:39:04.113Z,102540
2023-02-06T11:40:10.307Z,102540
2023-02-06T11:41:02.287Z,102540
2023-02-06T11:42:05.020Z,102540
2023-02-06T11:43:10.293Z,102550
2023-02-06T11:44:01.727Z,102540
2023-02-06T11:45:10.332Z,102550
2023-02-06T11:46:06.677Z,102530
2023-02-06T11:47:10.282Z,102530
2023-02-06T11:48:00.545Z,102530
2023-02-06T11:49:04.342Z,102530
2023-02-06T11:50:10.299Z,102540
2023-02-06T11:51:01.210Z,102530
2023-02-06T11:52:00.454Z,102520
2023-02-06T11:53:10.294Z,102530
2023-02-06T11:54:01.480Z,102530
2023-02-06T11:55:00.506Z,102540
2023-02-06T11:56:10.313Z,102540
2023-02-06T11:57:02.579Z,102530
2023-02-06T11:58:03.816Z,102530
2023-02-06T11:59:05.969Z,102540
2023-02-06T12:00:02.818Z,102540
2023-02-06T12:01:05.134Z,102540
2023-02-06T12:02:02.008Z,102540
2023-02-06T12:03:01.173Z,102540
2023-02-06T12:04:00.549Z,102530
2023-02-06T12:05:09.557Z,102550
2023-02-06T12:06:10.251Z,102550
2023-02-06T12:07:04.263Z,102550
2023-02-06T12:08:00.443Z,102550
2023-02-06T12:09:02.006Z,102550
2023-02-06T12:10:00.423Z,102550
2023-02-06T12:11:02.130Z,102550
2023-02-06T12:12:09.929Z,102550
2023-02-06T12:13:00.414Z,102550
2023-02-06T12:14:10.314Z,102550
2023-02-06T12:15:23.644Z,102550
2023-02-06T12:16:02.992Z,102540
2023-02-06T12:17:02.158Z,102540
2023-02-06T12:18:03.869Z,102550
2023-02-06T12:19:00.950Z,102550
2023-02-06T12:20:07.144Z,102540
2023-02-06T12:21:10.316Z,102540
2023-02-06T12:22:04.292Z,102540
2023-02-06T12:23:05.451Z,102540
2023-02-06T12:24:02.497Z,102530
2023-02-06T12:25:01.990Z,102530
2023-02-06T12:26:04.079Z,102540
2023-02-06T12:27:04.482Z,102530
2023-02-06T12:28:07.957Z,102550